sensor_id;sensor_type;location;lat;lon;timestamp;P1;durP1;ratioP1;P2;durP2;ratioP2
57433;SDS011;43277;52.672;6.984;2022-08-26T00:00:26;15.35;;;11.27;;
57433;SDS011;43277;52.672;6.984;2022-08-26T00:02:52;15.75;;;10.45;;
57433;SDS011;43277;52.672;6.984;2022-08-26T00:05:18;15.63;;;10.68;;
57433;SDS011;43277;52.672;6.984;2022-08-26T00:07:44;16.42;;;10.68;;
57433;SDS011;43277;52.672;6.984;2022-08-26T00:10:10;16.85;;;10.75;;
57433;SDS011;43277;52.672;6.984;2022-08-26T00:12:36;16.05;;;10.02;;
57433;SDS011;43277;52.672;6.984;2022-08-26T00:15:04;13.95;;;9.75;;
57433;SDS011;43277;52.672;6.984;2022-08-26T00:17:31;14.00;;;9.77;;
57433;SDS011;43277;52.672;6.984;2022-08-26T00:19:56;13.68;;;9.98;;
57433;SDS011;43277;52.672;6.984;2022-08-26T00:22:22;16.98;;;10.70;;
57433;SDS011;43277;52.672;6.984;2022-08-26T00:24:47;15.20;;;11.30;;
57433;SDS011;43277;52.672;6.984;2022-08-26T00:27:13;16.98;;;11.52;;
57433;SDS011;43277;52.672;6.984;2022-08-26T00:29:39;16.38;;;11.68;;
57433;SDS011;43277;52.672;6.984;2022-08-26T00:32:04;16.90;;;11.40;;
57433;SDS011;43277;52.672;6.984;2022-08-26T00:34:30;13.45;;;10.95;;
57433;SDS011;43277;52.672;6.984;2022-08-26T00:36:56;16.13;;;11.93;;
57433;SDS011;43277;52.672;6.984;2022-08-26T00:39:21;14.85;;;11.45;;
57433;SDS011;43277;52.672;6.984;2022-08-26T00:41:47;17.90;;;11.38;;
57433;SDS011;43277;52.672;6.984;2022-08-26T00:44:14;14.27;;;10.55;;
57433;SDS011;43277;52.672;6.984;2022-08-26T00:46:41;17.75;;;12.05;;
57433;SDS011;43277;52.672;6.984;2022-08-26T00:49:11;20.15;;;12.77;;
57433;SDS011;43277;52.672;6.984;2022-08-26T00:51:53;14.95;;;11.18;;
57433;SDS011;43277;52.672;6.984;2022-08-26T00:54:21;21.30;;;12.45;;
57433;SDS011;43277;52.672;6.984;2022-08-26T00:56:59;15.93;;;11.80;;
57433;SDS011;43277;52.672;6.984;2022-08-26T00:59:27;14.48;;;11.43;;
57433;SDS011;43277;52.672;6.984;2022-08-26T01:01:54;15.48;;;12.75;;
57433;SDS011;43277;52.672;6.984;2022-08-26T01:04:21;15.93;;;12.05;;
57433;SDS011;43277;52.672;6.984;2022-08-26T01:06:49;17.58;;;12.90;;
57433;SDS011;43277;52.672;6.984;2022-08-26T01:09:16;15.18;;;12.05;;
57433;SDS011;43277;52.672;6.984;2022-08-26T01:11:43;15.70;;;12.10;;
57433;SDS011;43277;52.672;6.984;2022-08-26T01:14:09;13.57;;;11.70;;
57433;SDS011;43277;52.672;6.984;2022-08-26T01:16:36;15.60;;;12.15;;
57433;SDS011;43277;52.672;6.984;2022-08-26T01:19:06;17.67;;;14.60;;
57433;SDS011;43277;52.672;6.984;2022-08-26T01:21:45;18.45;;;14.95;;
57433;SDS011;43277;52.672;6.984;2022-08-26T01:24:17;16.83;;;14.98;;
57433;SDS011;43277;52.672;6.984;2022-08-26T01:26:43;17.60;;;15.80;;
57433;SDS011;43277;52.672;6.984;2022-08-26T01:29:10;21.83;;;19.58;;
57433;SDS011;43277;52.672;6.984;2022-08-26T01:31:50;22.63;;;20.27;;
57433;SDS011;43277;52.672;6.984;2022-08-26T01:34:23;25.80;;;23.05;;
57433;SDS011;43277;52.672;6.984;2022-08-26T01:36:52;21.65;;;19.23;;
57433;SDS011;43277;52.672;6.984;2022-08-26T01:39:22;22.55;;;20.15;;
57433;SDS011;43277;52.672;6.984;2022-08-26T01:41:49;26.60;;;21.65;;
57433;SDS011;43277;52.672;6.984;2022-08-26T01:44:19;23.05;;;20.75;;
57433;SDS011;43277;52.672;6.984;2022-08-26T01:46:48;25.98;;;23.42;;
57433;SDS011;43277;52.672;6.984;2022-08-26T01:49:15;28.38;;;25.83;;
57433;SDS011;43277;52.672;6.984;2022-08-26T01:51:42;29.45;;;26.60;;
57433;SDS011;43277;52.672;6.984;2022-08-26T01:54:09;29.17;;;26.23;;
57433;SDS011;43277;52.672;6.984;2022-08-26T01:56:36;28.58;;;25.73;;
57433;SDS011;43277;52.672;6.984;2022-08-26T01:59:03;29.75;;;26.85;;
57433;SDS011;43277;52.672;6.984;2022-08-26T02:01:32;35.60;;;32.45;;
57433;SDS011;43277;52.672;6.984;2022-08-26T02:06:52;33.83;;;30.65;;
57433;SDS011;43277;52.672;6.984;2022-08-26T02:09:20;40.88;;;36.85;;
57433;SDS011;43277;52.672;6.984;2022-08-26T02:11:47;35.10;;;31.80;;
57433;SDS011;43277;52.672;6.984;2022-08-26T02:14:15;38.00;;;34.38;;
57433;SDS011;43277;52.672;6.984;2022-08-26T02:16:47;38.28;;;34.63;;
57433;SDS011;43277;52.672;6.984;2022-08-26T02:19:19;35.83;;;32.40;;
57433;SDS011;43277;52.672;6.984;2022-08-26T02:21:56;34.28;;;31.25;;
57433;SDS011;43277;52.672;6.984;2022-08-26T02:24:26;35.60;;;32.40;;
57433;SDS011;43277;52.672;6.984;2022-08-26T02:26:54;36.28;;;32.90;;
57433;SDS011;43277;52.672;6.984;2022-08-26T02:29:31;35.63;;;32.42;;
57433;SDS011;43277;52.672;6.984;2022-08-26T02:32:08;37.25;;;33.75;;
57433;SDS011;43277;52.672;6.984;2022-08-26T02:34:34;38.00;;;34.55;;
57433;SDS011;43277;52.672;6.984;2022-08-26T02:37:04;41.22;;;37.28;;
57433;SDS011;43277;52.672;6.984;2022-08-26T02:39:33;43.40;;;39.28;;
57433;SDS011;43277;52.672;6.984;2022-08-26T02:42:01;43.65;;;39.75;;
57433;SDS011;43277;52.672;6.984;2022-08-26T02:44:27;43.30;;;39.30;;
57433;SDS011;43277;52.672;6.984;2022-08-26T02:46:53;40.95;;;37.15;;
57433;SDS011;43277;52.672;6.984;2022-08-26T02:49:19;47.45;;;42.65;;
57433;SDS011;43277;52.672;6.984;2022-08-26T02:51:45;44.88;;;40.55;;
57433;SDS011;43277;52.672;6.984;2022-08-26T02:54:12;44.70;;;40.42;;
57433;SDS011;43277;52.672;6.984;2022-08-26T02:56:38;46.25;;;41.70;;
57433;SDS011;43277;52.672;6.984;2022-08-26T02:59:04;48.88;;;44.17;;
57433;SDS011;43277;52.672;6.984;2022-08-26T03:01:31;42.72;;;38.45;;
57433;SDS011;43277;52.672;6.984;2022-08-26T03:03:58;49.75;;;44.47;;
57433;SDS011;43277;52.672;6.984;2022-08-26T03:06:25;41.65;;;37.60;;
57433;SDS011;43277;52.672;6.984;2022-08-26T03:08:51;47.15;;;42.22;;
57433;SDS011;43277;52.672;6.984;2022-08-26T03:11:18;45.67;;;41.20;;
57433;SDS011;43277;52.672;6.984;2022-08-26T03:13:44;39.22;;;35.55;;
57433;SDS011;43277;52.672;6.984;2022-08-26T03:16:10;45.40;;;40.88;;
57433;SDS011;43277;52.672;6.984;2022-08-26T03:18:37;46.28;;;41.47;;
57433;SDS011;43277;52.672;6.984;2022-08-26T03:21:06;49.95;;;44.70;;
57433;SDS011;43277;52.672;6.984;2022-08-26T03:23:34;42.45;;;38.10;;
57433;SDS011;43277;52.672;6.984;2022-08-26T03:26:01;43.03;;;38.60;;
57433;SDS011;43277;52.672;6.984;2022-08-26T03:28:27;46.88;;;41.88;;
57433;SDS011;43277;52.672;6.984;2022-08-26T03:30:53;41.38;;;37.10;;
57433;SDS011;43277;52.672;6.984;2022-08-26T03:33:20;45.53;;;39.40;;
57433;SDS011;43277;52.672;6.984;2022-08-26T03:35:46;38.20;;;33.30;;
57433;SDS011;43277;52.672;6.984;2022-08-26T03:38:12;37.78;;;32.10;;
57433;SDS011;43277;52.672;6.984;2022-08-26T03:40:38;39.58;;;35.15;;
57433;SDS011;43277;52.672;6.984;2022-08-26T03:43:06;39.00;;;34.40;;
57433;SDS011;43277;52.672;6.984;2022-08-26T03:45:33;37.92;;;33.33;;
57433;SDS011;43277;52.672;6.984;2022-08-26T03:48:00;37.50;;;33.28;;
57433;SDS011;43277;52.672;6.984;2022-08-26T03:50:26;36.75;;;32.88;;
57433;SDS011;43277;52.672;6.984;2022-08-26T03:52:53;36.28;;;32.30;;
57433;SDS011;43277;52.672;6.984;2022-08-26T03:55:21;41.63;;;36.17;;
57433;SDS011;43277;52.672;6.984;2022-08-26T03:57:49;37.35;;;33.30;;
57433;SDS011;43277;52.672;6.984;2022-08-26T04:00:15;36.45;;;32.78;;
57433;SDS011;43277;52.672;6.984;2022-08-26T04:02:45;38.67;;;34.65;;
57433;SDS011;43277;52.672;6.984;2022-08-26T04:05:13;38.70;;;32.53;;
57433;SDS011;43277;52.672;6.984;2022-08-26T04:07:42;39.70;;;35.43;;
57433;SDS011;43277;52.672;6.984;2022-08-26T04:10:09;36.65;;;32.78;;
57433;SDS011;43277;52.672;6.984;2022-08-26T04:12:36;39.13;;;31.38;;
57433;SDS011;43277;52.672;6.984;2022-08-26T04:15:04;38.75;;;34.25;;
57433;SDS011;43277;52.672;6.984;2022-08-26T04:17:31;37.97;;;33.22;;
57433;SDS011;43277;52.672;6.984;2022-08-26T04:19:57;42.08;;;36.13;;
57433;SDS011;43277;52.672;6.984;2022-08-26T04:22:22;37.47;;;32.40;;
57433;SDS011;43277;52.672;6.984;2022-08-26T04:24:48;37.83;;;33.72;;
57433;SDS011;43277;52.672;6.984;2022-08-26T04:27:14;39.45;;;32.58;;
57433;SDS011;43277;52.672;6.984;2022-08-26T04:29:40;38.15;;;32.97;;
57433;SDS011;43277;52.672;6.984;2022-08-26T04:32:06;38.38;;;30.08;;
57433;SDS011;43277;52.672;6.984;2022-08-26T04:34:33;38.28;;;30.27;;
57433;SDS011;43277;52.672;6.984;2022-08-26T04:36:59;39.08;;;34.83;;
57433;SDS011;43277;52.672;6.984;2022-08-26T04:39:26;37.25;;;31.13;;
57433;SDS011;43277;52.672;6.984;2022-08-26T04:41:52;35.55;;;31.50;;
57433;SDS011;43277;52.672;6.984;2022-08-26T04:44:21;40.88;;;33.35;;
57433;SDS011;43277;52.672;6.984;2022-08-26T04:46:48;38.15;;;31.23;;
57433;SDS011;43277;52.672;6.984;2022-08-26T04:49:14;38.80;;;33.55;;
57433;SDS011;43277;52.672;6.984;2022-08-26T04:51:40;38.30;;;32.55;;
57433;SDS011;43277;52.672;6.984;2022-08-26T04:54:05;34.45;;;30.73;;
57433;SDS011;43277;52.672;6.984;2022-08-26T04:56:32;33.28;;;28.85;;
57433;SDS011;43277;52.672;6.984;2022-08-26T04:59:01;37.97;;;28.73;;
57433;SDS011;43277;52.672;6.984;2022-08-26T05:01:28;34.95;;;31.10;;
57433;SDS011;43277;52.672;6.984;2022-08-26T05:03:55;35.20;;;29.60;;
57433;SDS011;43277;52.672;6.984;2022-08-26T05:06:22;33.72;;;29.67;;
57433;SDS011;43277;52.672;6.984;2022-08-26T05:08:48;40.15;;;32.25;;
57433;SDS011;43277;52.672;6.984;2022-08-26T05:11:14;36.63;;;31.65;;
57433;SDS011;43277;52.672;6.984;2022-08-26T05:13:40;35.28;;;28.77;;
57433;SDS011;43277;52.672;6.984;2022-08-26T05:16:06;36.05;;;27.85;;
57433;SDS011;43277;52.672;6.984;2022-08-26T05:18:36;35.88;;;30.13;;
57433;SDS011;43277;52.672;6.984;2022-08-26T05:21:03;35.92;;;29.27;;
57433;SDS011;43277;52.672;6.984;2022-08-26T05:23:29;33.67;;;30.00;;
57433;SDS011;43277;52.672;6.984;2022-08-26T05:25:58;38.35;;;31.02;;
57433;SDS011;43277;52.672;6.984;2022-08-26T05:28:25;29.38;;;25.23;;
57433;SDS011;43277;52.672;6.984;2022-08-26T05:30:53;40.85;;;31.48;;
57433;SDS011;43277;52.672;6.984;2022-08-26T05:33:19;32.53;;;26.80;;
57433;SDS011;43277;52.672;6.984;2022-08-26T05:35:46;34.33;;;26.00;;
57433;SDS011;43277;52.672;6.984;2022-08-26T05:38:13;36.90;;;27.83;;
57433;SDS011;43277;52.672;6.984;2022-08-26T05:40:41;35.03;;;28.50;;
57433;SDS011;43277;52.672;6.984;2022-08-26T05:43:09;33.08;;;25.85;;
57433;SDS011;43277;52.672;6.984;2022-08-26T05:45:37;34.40;;;26.10;;
57433;SDS011;43277;52.672;6.984;2022-08-26T05:48:11;36.38;;;27.60;;
57433;SDS011;43277;52.672;6.984;2022-08-26T05:50:39;33.55;;;27.65;;
57433;SDS011;43277;52.672;6.984;2022-08-26T05:53:07;33.15;;;26.50;;
57433;SDS011;43277;52.672;6.984;2022-08-26T05:55:34;30.70;;;24.10;;
57433;SDS011;43277;52.672;6.984;2022-08-26T05:58:06;32.38;;;25.10;;
57433;SDS011;43277;52.672;6.984;2022-08-26T06:00:32;30.45;;;23.17;;
57433;SDS011;43277;52.672;6.984;2022-08-26T06:02:58;34.28;;;25.17;;
57433;SDS011;43277;52.672;6.984;2022-08-26T06:05:23;29.20;;;21.92;;
57433;SDS011;43277;52.672;6.984;2022-08-26T06:07:49;33.20;;;22.17;;
57433;SDS011;43277;52.672;6.984;2022-08-26T06:10:33;30.15;;;22.15;;
57433;SDS011;43277;52.672;6.984;2022-08-26T06:13:00;35.78;;;22.02;;
57433;SDS011;43277;52.672;6.984;2022-08-26T06:15:26;32.75;;;22.23;;
57433;SDS011;43277;52.672;6.984;2022-08-26T06:17:51;30.98;;;21.27;;
57433;SDS011;43277;52.672;6.984;2022-08-26T06:20:17;27.48;;;20.63;;
57433;SDS011;43277;52.672;6.984;2022-08-26T06:22:42;27.50;;;21.55;;
57433;SDS011;43277;52.672;6.984;2022-08-26T06:25:27;23.00;;;19.67;;
57433;SDS011;43277;52.672;6.984;2022-08-26T06:28:06;28.95;;;19.92;;
57433;SDS011;43277;52.672;6.984;2022-08-26T06:30:32;27.13;;;18.80;;
57433;SDS011;43277;52.672;6.984;2022-08-26T06:33:02;25.33;;;18.83;;
57433;SDS011;43277;52.672;6.984;2022-08-26T06:35:27;25.90;;;18.85;;
57433;SDS011;43277;52.672;6.984;2022-08-26T06:37:53;28.77;;;19.17;;
57433;SDS011;43277;52.672;6.984;2022-08-26T06:40:19;24.90;;;17.67;;
57433;SDS011;43277;52.672;6.984;2022-08-26T06:42:46;22.13;;;17.17;;
57433;SDS011;43277;52.672;6.984;2022-08-26T06:45:12;27.27;;;17.15;;
57433;SDS011;43277;52.672;6.984;2022-08-26T06:47:37;23.88;;;17.13;;
57433;SDS011;43277;52.672;6.984;2022-08-26T06:50:03;22.48;;;15.43;;
57433;SDS011;43277;52.672;6.984;2022-08-26T06:52:29;21.77;;;15.90;;
57433;SDS011;43277;52.672;6.984;2022-08-26T06:54:54;20.60;;;15.43;;
57433;SDS011;43277;52.672;6.984;2022-08-26T06:57:20;26.33;;;16.02;;
57433;SDS011;43277;52.672;6.984;2022-08-26T06:59:46;23.38;;;16.02;;
57433;SDS011;43277;52.672;6.984;2022-08-26T07:02:12;20.75;;;15.45;;
57433;SDS011;43277;52.672;6.984;2022-08-26T07:04:37;24.45;;;16.15;;
57433;SDS011;43277;52.672;6.984;2022-08-26T07:07:03;20.13;;;14.57;;
57433;SDS011;43277;52.672;6.984;2022-08-26T07:09:29;23.38;;;15.02;;
57433;SDS011;43277;52.672;6.984;2022-08-26T07:11:57;22.15;;;15.35;;
57433;SDS011;43277;52.672;6.984;2022-08-26T07:14:23;23.25;;;15.40;;
57433;SDS011;43277;52.672;6.984;2022-08-26T07:16:49;18.77;;;13.73;;
57433;SDS011;43277;52.672;6.984;2022-08-26T07:19:19;19.98;;;13.00;;
57433;SDS011;43277;52.672;6.984;2022-08-26T07:21:45;20.40;;;14.90;;
57433;SDS011;43277;52.672;6.984;2022-08-26T07:24:11;21.17;;;13.35;;
57433;SDS011;43277;52.672;6.984;2022-08-26T07:26:37;18.20;;;13.18;;
57433;SDS011;43277;52.672;6.984;2022-08-26T07:29:03;18.60;;;12.85;;
57433;SDS011;43277;52.672;6.984;2022-08-26T07:31:31;26.42;;;14.13;;
57433;SDS011;43277;52.672;6.984;2022-08-26T07:33:59;18.52;;;13.82;;
57433;SDS011;43277;52.672;6.984;2022-08-26T07:36:25;19.58;;;12.57;;
57433;SDS011;43277;52.672;6.984;2022-08-26T07:38:52;20.88;;;13.43;;
57433;SDS011;43277;52.672;6.984;2022-08-26T07:41:23;21.48;;;12.93;;
57433;SDS011;43277;52.672;6.984;2022-08-26T07:43:50;19.80;;;11.63;;
57433;SDS011;43277;52.672;6.984;2022-08-26T07:46:16;20.73;;;12.48;;
57433;SDS011;43277;52.672;6.984;2022-08-26T07:48:44;18.83;;;11.40;;
57433;SDS011;43277;52.672;6.984;2022-08-26T07:51:11;17.45;;;10.82;;
57433;SDS011;43277;52.672;6.984;2022-08-26T07:53:38;20.63;;;12.13;;
57433;SDS011;43277;52.672;6.984;2022-08-26T07:56:04;17.70;;;11.52;;
57433;SDS011;43277;52.672;6.984;2022-08-26T07:58:30;18.05;;;11.30;;
57433;SDS011;43277;52.672;6.984;2022-08-26T08:00:56;17.10;;;10.40;;
57433;SDS011;43277;52.672;6.984;2022-08-26T08:03:22;16.02;;;9.77;;
57433;SDS011;43277;52.672;6.984;2022-08-26T08:05:48;17.48;;;11.18;;
57433;SDS011;43277;52.672;6.984;2022-08-26T08:08:13;19.83;;;10.38;;
57433;SDS011;43277;52.672;6.984;2022-08-26T08:10:39;21.08;;;10.57;;
57433;SDS011;43277;52.672;6.984;2022-08-26T08:13:05;17.17;;;11.07;;
57433;SDS011;43277;52.672;6.984;2022-08-26T08:15:31;19.73;;;10.65;;
57433;SDS011;43277;52.672;6.984;2022-08-26T08:17:58;16.88;;;9.20;;
57433;SDS011;43277;52.672;6.984;2022-08-26T08:20:24;17.95;;;9.63;;
57433;SDS011;43277;52.672;6.984;2022-08-26T08:22:51;18.27;;;9.43;;
57433;SDS011;43277;52.672;6.984;2022-08-26T08:25:17;16.30;;;8.30;;
57433;SDS011;43277;52.672;6.984;2022-08-26T08:27:43;15.95;;;8.80;;
57433;SDS011;43277;52.672;6.984;2022-08-26T08:30:09;15.68;;;8.38;;
57433;SDS011;43277;52.672;6.984;2022-08-26T08:32:36;21.25;;;8.45;;
57433;SDS011;43277;52.672;6.984;2022-08-26T08:35:02;18.88;;;8.48;;
57433;SDS011;43277;52.672;6.984;2022-08-26T08:37:32;15.77;;;8.45;;
57433;SDS011;43277;52.672;6.984;2022-08-26T08:39:58;13.93;;;7.32;;
57433;SDS011;43277;52.672;6.984;2022-08-26T08:45:22;15.65;;;7.70;;
57433;SDS011;43277;52.672;6.984;2022-08-26T08:47:55;16.00;;;7.60;;
57433;SDS011;43277;52.672;6.984;2022-08-26T08:50:33;15.98;;;7.68;;
57433;SDS011;43277;52.672;6.984;2022-08-26T08:53:07;16.60;;;6.75;;
57433;SDS011;43277;52.672;6.984;2022-08-26T08:58:20;17.90;;;6.85;;
57433;SDS011;43277;52.672;6.984;2022-08-26T09:01:01;16.98;;;7.15;;
57433;SDS011;43277;52.672;6.984;2022-08-26T09:06:18;39.03;;;7.88;;
57433;SDS011;43277;52.672;6.984;2022-08-26T09:08:45;15.35;;;6.28;;
57433;SDS011;43277;52.672;6.984;2022-08-26T09:11:13;15.55;;;6.32;;
57433;SDS011;43277;52.672;6.984;2022-08-26T09:13:44;14.98;;;6.45;;
57433;SDS011;43277;52.672;6.984;2022-08-26T09:16:15;16.40;;;6.63;;
57433;SDS011;43277;52.672;6.984;2022-08-26T09:21:34;11.90;;;5.95;;
57433;SDS011;43277;52.672;6.984;2022-08-26T09:24:00;16.60;;;6.60;;
57433;SDS011;43277;52.672;6.984;2022-08-26T09:26:41;14.60;;;6.43;;
57433;SDS011;43277;52.672;6.984;2022-08-26T09:29:19;15.15;;;6.68;;
57433;SDS011;43277;52.672;6.984;2022-08-26T09:31:47;11.13;;;5.90;;
57433;SDS011;43277;52.672;6.984;2022-08-26T09:36:51;14.25;;;6.00;;
57433;SDS011;43277;52.672;6.984;2022-08-26T09:45:00;15.10;;;6.78;;
57433;SDS011;43277;52.672;6.984;2022-08-26T09:47:30;16.85;;;6.22;;
57433;SDS011;43277;52.672;6.984;2022-08-26T09:50:08;15.63;;;6.68;;
57433;SDS011;43277;52.672;6.984;2022-08-26T09:52:43;17.60;;;5.93;;
57433;SDS011;43277;52.672;6.984;2022-08-26T09:55:13;15.80;;;6.13;;
57433;SDS011;43277;52.672;6.984;2022-08-26T09:57:52;15.73;;;6.20;;
57433;SDS011;43277;52.672;6.984;2022-08-26T10:03:02;30.55;;;6.68;;
57433;SDS011;43277;52.672;6.984;2022-08-26T10:07:59;15.23;;;5.68;;
57433;SDS011;43277;52.672;6.984;2022-08-26T10:10:26;14.88;;;5.30;;
57433;SDS011;43277;52.672;6.984;2022-08-26T10:13:04;12.45;;;5.30;;
57433;SDS011;43277;52.672;6.984;2022-08-26T10:18:41;13.30;;;4.70;;
57433;SDS011;43277;52.672;6.984;2022-08-26T10:21:15;13.93;;;5.10;;
57433;SDS011;43277;52.672;6.984;2022-08-26T10:23:55;16.55;;;4.72;;
57433;SDS011;43277;52.672;6.984;2022-08-26T10:26:25;16.65;;;4.47;;
57433;SDS011;43277;52.672;6.984;2022-08-26T10:28:59;16.95;;;5.85;;
57433;SDS011;43277;52.672;6.984;2022-08-26T10:31:38;14.75;;;5.00;;
57433;SDS011;43277;52.672;6.984;2022-08-26T10:34:09;13.13;;;4.65;;
57433;SDS011;43277;52.672;6.984;2022-08-26T10:36:40;13.07;;;4.82;;
57433;SDS011;43277;52.672;6.984;2022-08-26T10:39:23;17.63;;;4.50;;
57433;SDS011;43277;52.672;6.984;2022-08-26T10:42:05;16.75;;;4.82;;
57433;SDS011;43277;52.672;6.984;2022-08-26T10:44:37;12.90;;;4.10;;
57433;SDS011;43277;52.672;6.984;2022-08-26T10:47:51;21.35;;;4.45;;
57433;SDS011;43277;52.672;6.984;2022-08-26T10:50:01;14.77;;;3.97;;
57433;SDS011;43277;52.672;6.984;2022-08-26T10:55:30;15.35;;;4.15;;
57433;SDS011;43277;52.672;6.984;2022-08-26T10:57:59;13.98;;;3.28;;
57433;SDS011;43277;52.672;6.984;2022-08-26T11:00:41;11.90;;;3.90;;
57433;SDS011;43277;52.672;6.984;2022-08-26T11:06:24;11.73;;;3.45;;
57433;SDS011;43277;52.672;6.984;2022-08-26T11:09:10;12.60;;;3.13;;
57433;SDS011;43277;52.672;6.984;2022-08-26T11:11:56;12.70;;;3.45;;
57433;SDS011;43277;52.672;6.984;2022-08-26T11:16:54;11.07;;;3.20;;
57433;SDS011;43277;52.672;6.984;2022-08-26T11:35:11;13.68;;;3.22;;
57433;SDS011;43277;52.672;6.984;2022-08-26T11:40:16;11.23;;;3.10;;
57433;SDS011;43277;52.672;6.984;2022-08-26T11:45:24;12.55;;;2.78;;
57433;SDS011;43277;52.672;6.984;2022-08-26T11:53:36;12.82;;;2.55;;
57433;SDS011;43277;52.672;6.984;2022-08-26T11:56:05;12.38;;;3.05;;
57433;SDS011;43277;52.672;6.984;2022-08-26T11:58:34;11.95;;;3.25;;
57433;SDS011;43277;52.672;6.984;2022-08-26T12:01:05;14.70;;;2.88;;
57433;SDS011;43277;52.672;6.984;2022-08-26T12:03:39;10.43;;;2.90;;
57433;SDS011;43277;52.672;6.984;2022-08-26T12:06:09;12.55;;;3.22;;
57433;SDS011;43277;52.672;6.984;2022-08-26T12:08:57;18.48;;;3.08;;
57433;SDS011;43277;52.672;6.984;2022-08-26T12:11:26;15.82;;;3.45;;
57433;SDS011;43277;52.672;6.984;2022-08-26T12:14:02;11.98;;;3.05;;
57433;SDS011;43277;52.672;6.984;2022-08-26T12:16:37;12.10;;;3.28;;
57433;SDS011;43277;52.672;6.984;2022-08-26T12:19:26;15.48;;;3.13;;
57433;SDS011;43277;52.672;6.984;2022-08-26T12:22:02;9.18;;;2.83;;
57433;SDS011;43277;52.672;6.984;2022-08-26T12:24:53;11.43;;;2.90;;
57433;SDS011;43277;52.672;6.984;2022-08-26T12:27:24;15.63;;;3.38;;
57433;SDS011;43277;52.672;6.984;2022-08-26T12:32:29;13.48;;;3.28;;
57433;SDS011;43277;52.672;6.984;2022-08-26T12:34:55;10.38;;;2.90;;
57433;SDS011;43277;52.672;6.984;2022-08-26T12:37:22;8.77;;;2.47;;
57433;SDS011;43277;52.672;6.984;2022-08-26T12:39:51;12.00;;;2.53;;
57433;SDS011;43277;52.672;6.984;2022-08-26T12:42:37;12.65;;;2.88;;
57433;SDS011;43277;52.672;6.984;2022-08-26T12:45:05;12.52;;;3.08;;
57433;SDS011;43277;52.672;6.984;2022-08-26T12:47:35;10.20;;;2.35;;
57433;SDS011;43277;52.672;6.984;2022-08-26T12:52:38;12.50;;;3.10;;
57433;SDS011;43277;52.672;6.984;2022-08-26T12:55:19;14.38;;;3.33;;
57433;SDS011;43277;52.672;6.984;2022-08-26T13:11:30;13.10;;;2.75;;
57433;SDS011;43277;52.672;6.984;2022-08-26T13:14:17;13.85;;;3.00;;
57433;SDS011;43277;52.672;6.984;2022-08-26T13:16:44;15.73;;;2.85;;
57433;SDS011;43277;52.672;6.984;2022-08-26T13:19:17;16.75;;;2.72;;
57433;SDS011;43277;52.672;6.984;2022-08-26T13:21:49;9.00;;;2.53;;
57433;SDS011;43277;52.672;6.984;2022-08-26T13:24:33;10.35;;;2.67;;
57433;SDS011;43277;52.672;6.984;2022-08-26T13:27:01;15.85;;;2.75;;
57433;SDS011;43277;52.672;6.984;2022-08-26T13:29:28;9.18;;;2.40;;
57433;SDS011;43277;52.672;6.984;2022-08-26T13:31:53;14.23;;;2.50;;
57433;SDS011;43277;52.672;6.984;2022-08-26T13:34:20;11.52;;;2.58;;
57433;SDS011;43277;52.672;6.984;2022-08-26T13:36:47;10.57;;;2.65;;
57433;SDS011;43277;52.672;6.984;2022-08-26T13:39:14;10.90;;;2.40;;
57433;SDS011;43277;52.672;6.984;2022-08-26T13:41:41;10.65;;;2.30;;
57433;SDS011;43277;52.672;6.984;2022-08-26T13:44:07;14.43;;;2.88;;
57433;SDS011;43277;52.672;6.984;2022-08-26T13:46:33;8.52;;;2.75;;
57433;SDS011;43277;52.672;6.984;2022-08-26T13:48:59;12.70;;;2.58;;
57433;SDS011;43277;52.672;6.984;2022-08-26T13:51:25;16.55;;;2.95;;
57433;SDS011;43277;52.672;6.984;2022-08-26T13:53:51;18.50;;;3.50;;
57433;SDS011;43277;52.672;6.984;2022-08-26T13:56:17;8.63;;;2.97;;
57433;SDS011;43277;52.672;6.984;2022-08-26T13:58:43;9.57;;;2.50;;
57433;SDS011;43277;52.672;6.984;2022-08-26T14:01:09;10.27;;;2.67;;
57433;SDS011;43277;52.672;6.984;2022-08-26T14:03:35;12.57;;;2.72;;
57433;SDS011;43277;52.672;6.984;2022-08-26T14:06:01;12.18;;;2.95;;
57433;SDS011;43277;52.672;6.984;2022-08-26T14:08:27;9.30;;;2.88;;
57433;SDS011;43277;52.672;6.984;2022-08-26T14:10:53;15.10;;;2.72;;
57433;SDS011;43277;52.672;6.984;2022-08-26T14:13:19;21.95;;;2.97;;
57433;SDS011;43277;52.672;6.984;2022-08-26T14:15:44;8.65;;;2.25;;
57433;SDS011;43277;52.672;6.984;2022-08-26T14:18:11;7.20;;;1.80;;
57433;SDS011;43277;52.672;6.984;2022-08-26T14:20:40;7.65;;;1.80;;
57433;SDS011;43277;52.672;6.984;2022-08-26T14:23:06;11.82;;;1.70;;
57433;SDS011;43277;52.672;6.984;2022-08-26T14:25:32;6.40;;;1.85;;
57433;SDS011;43277;52.672;6.984;2022-08-26T14:27:58;10.50;;;1.95;;
57433;SDS011;43277;52.672;6.984;2022-08-26T14:30:23;14.40;;;2.42;;
57433;SDS011;43277;52.672;6.984;2022-08-26T14:32:50;10.52;;;2.05;;
57433;SDS011;43277;52.672;6.984;2022-08-26T14:35:20;8.15;;;1.73;;
57433;SDS011;43277;52.672;6.984;2022-08-26T14:37:48;10.18;;;1.95;;
57433;SDS011;43277;52.672;6.984;2022-08-26T14:40:15;12.18;;;2.17;;
57433;SDS011;43277;52.672;6.984;2022-08-26T14:42:46;10.93;;;1.90;;
57433;SDS011;43277;52.672;6.984;2022-08-26T14:45:14;7.57;;;2.15;;
57433;SDS011;43277;52.672;6.984;2022-08-26T14:47:42;9.80;;;2.22;;
57433;SDS011;43277;52.672;6.984;2022-08-26T14:50:09;13.65;;;2.67;;
57433;SDS011;43277;52.672;6.984;2022-08-26T14:52:36;11.00;;;2.05;;
57433;SDS011;43277;52.672;6.984;2022-08-26T14:55:21;8.50;;;2.25;;
57433;SDS011;43277;52.672;6.984;2022-08-26T14:57:47;9.07;;;1.95;;
57433;SDS011;43277;52.672;6.984;2022-08-26T15:00:13;12.00;;;2.22;;
57433;SDS011;43277;52.672;6.984;2022-08-26T15:02:39;10.85;;;2.17;;
57433;SDS011;43277;52.672;6.984;2022-08-26T15:05:04;11.38;;;2.00;;
57433;SDS011;43277;52.672;6.984;2022-08-26T15:07:32;9.38;;;2.33;;
57433;SDS011;43277;52.672;6.984;2022-08-26T15:09:58;9.80;;;2.50;;
57433;SDS011;43277;52.672;6.984;2022-08-26T15:12:24;7.20;;;1.73;;
57433;SDS011;43277;52.672;6.984;2022-08-26T15:14:50;14.20;;;1.73;;
57433;SDS011;43277;52.672;6.984;2022-08-26T15:17:15;7.97;;;1.83;;
57433;SDS011;43277;52.672;6.984;2022-08-26T15:19:41;7.47;;;1.75;;
57433;SDS011;43277;52.672;6.984;2022-08-26T15:22:07;11.60;;;2.05;;
57433;SDS011;43277;52.672;6.984;2022-08-26T15:24:33;9.05;;;2.28;;
57433;SDS011;43277;52.672;6.984;2022-08-26T15:26:59;9.25;;;2.25;;
57433;SDS011;43277;52.672;6.984;2022-08-26T15:29:24;12.32;;;2.53;;
57433;SDS011;43277;52.672;6.984;2022-08-26T15:31:50;10.23;;;2.38;;
57433;SDS011;43277;52.672;6.984;2022-08-26T15:34:16;10.13;;;2.25;;
57433;SDS011;43277;52.672;6.984;2022-08-26T15:36:42;9.23;;;2.58;;
57433;SDS011;43277;52.672;6.984;2022-08-26T15:39:10;12.77;;;3.00;;
57433;SDS011;43277;52.672;6.984;2022-08-26T15:41:38;10.23;;;2.60;;
57433;SDS011;43277;52.672;6.984;2022-08-26T15:44:05;10.32;;;2.47;;
57433;SDS011;43277;52.672;6.984;2022-08-26T15:46:32;16.52;;;2.83;;
57433;SDS011;43277;52.672;6.984;2022-08-26T15:48:58;10.10;;;2.20;;
57433;SDS011;43277;52.672;6.984;2022-08-26T15:51:28;11.07;;;2.70;;
57433;SDS011;43277;52.672;6.984;2022-08-26T15:53:57;9.55;;;2.50;;
57433;SDS011;43277;52.672;6.984;2022-08-26T15:56:26;10.38;;;2.47;;
57433;SDS011;43277;52.672;6.984;2022-08-26T15:58:53;8.98;;;2.55;;
57433;SDS011;43277;52.672;6.984;2022-08-26T16:01:20;9.98;;;2.50;;